This is the latest recevied weather packets stored in our database for station/object DG8SBT-13. If no packets are shown the sender has not sent any weather packets the latest 10 day(s).
| Time | Temp. | Humidity | Pressure | Rain* | Wind** | Luminosity | Snow |
|---|---|---|---|---|---|---|---|
| 1777939429 | 23.89° C | 33% | 1012.9 hPa | - | - | - | - |
| 1777937639 | 23.89° C | 32% | 1013.3 hPa | - | - | - | - |
| 1777935849 | 23.89° C | 32% | 1013.5 hPa | - | - | - | - |
| 1777934059 | 24.44° C | 32% | 1013.6 hPa | - | - | - | - |
| 1777932270 | 24.44° C | 31% | 1013.6 hPa | - | - | - | - |
| 1777930479 | 25° C | 30% | 1013.7 hPa | - | - | - | - |
| 1777928689 | 25° C | 31% | 1014.1 hPa | - | - | - | - |
| 1777926899 | 24.44° C | 31% | 1014.3 hPa | - | - | - | - |
| 1777925108 | 25° C | 31% | 1014.3 hPa | - | - | - | - |
| 1777923317 | 25° C | 29% | 1014.1 hPa | - | - | - | - |
| 1777921526 | 25.56° C | 29% | 1013.9 hPa | - | - | - | - |
| 1777919737 | 26.11° C | 29% | 1013.8 hPa | - | - | - | - |
| 1777917947 | 26.11° C | 28% | 1013.7 hPa | - | - | - | - |
| 1777916159 | 26.67° C | 27% | 1013.3 hPa | - | - | - | - |
| 1777914369 | 27.22° C | 29% | 1013.3 hPa | - | - | - | - |
| 1777912578 | 28.33° C | 27% | 1013.2 hPa | - | - | - | - |
| 1777910789 | 28.33° C | 27% | 1013.2 hPa | - | - | - | - |
| 1777908997 | 28.89° C | 27% | 1013.2 hPa | - | - | - | - |
| 1777907206 | 28.89° C | 28% | 1013.3 hPa | - | - | - | - |
| 1777905414 | 27.78° C | 29% | 1013.6 hPa | - | - | - | - |
| 1777903622 | 27.22° C | 30% | 1013.8 hPa | - | - | - | - |
| 1777901831 | 26.67° C | 30% | 1014 hPa | - | - | - | - |
| 1777900040 | 26.67° C | 30% | 1014.3 hPa | - | - | - | - |
| 1777898250 | 26.67° C | 29% | 1014.4 hPa | - | - | - | - |
| 1777896460 | 26.11° C | 30% | 1014.6 hPa | - | - | - | - |
* Rain since midnight (hover to see other rain measurements)
** Current wind speed in m/s (hover to see current wind gust speed)